sensor_id;sensor_type;location;lat;lon;timestamp;P1;durP1;ratioP1;P2;durP2;ratioP2
70199;SDS011;57587;55.688;37.600;2023-09-12T13:42:51;11.77;;;6.38;;
70199;SDS011;57587;55.688;37.600;2023-09-12T13:45:19;13.83;;;7.00;;
70199;SDS011;57587;55.688;37.600;2023-09-12T13:47:46;10.45;;;6.75;;
70199;SDS011;57587;55.688;37.600;2023-09-12T13:50:14;11.90;;;6.15;;
70199;SDS011;57587;55.688;37.600;2023-09-12T13:52:42;11.45;;;6.22;;
70199;SDS011;57587;55.688;37.600;2023-09-12T13:55:09;14.82;;;7.05;;
70199;SDS011;57587;55.688;37.600;2023-09-12T13:57:44;13.43;;;6.53;;
70199;SDS011;57587;55.688;37.600;2023-09-12T14:00:25;13.57;;;6.80;;
70199;SDS011;57587;55.688;37.600;2023-09-12T14:03:12;13.05;;;6.53;;
70199;SDS011;57587;55.688;37.600;2023-09-12T14:05:40;12.40;;;6.68;;
70199;SDS011;57587;55.688;37.600;2023-09-12T14:08:09;11.18;;;6.63;;
70199;SDS011;57587;55.688;37.600;2023-09-12T14:10:36;11.97;;;6.70;;
70199;SDS011;57587;55.688;37.600;2023-09-12T14:13:06;11.00;;;6.35;;
70199;SDS011;57587;55.688;37.600;2023-09-12T14:15:46;10.73;;;6.80;;
70199;SDS011;57587;55.688;37.600;2023-09-12T14:18:14;13.07;;;7.10;;
70199;SDS011;57587;55.688;37.600;2023-09-12T14:20:42;13.00;;;6.60;;
70199;SDS011;57587;55.688;37.600;2023-09-12T14:23:11;11.70;;;7.37;;
70199;SDS011;57587;55.688;37.600;2023-09-12T14:25:38;14.93;;;6.85;;
70199;SDS011;57587;55.688;37.600;2023-09-12T14:28:05;10.38;;;6.95;;
70199;SDS011;57587;55.688;37.600;2023-09-12T14:30:34;13.63;;;7.45;;
70199;SDS011;57587;55.688;37.600;2023-09-12T14:33:03;15.60;;;7.55;;
70199;SDS011;57587;55.688;37.600;2023-09-12T14:35:36;10.80;;;7.40;;
70199;SDS011;57587;55.688;37.600;2023-09-12T14:38:03;12.65;;;7.18;;
70199;SDS011;57587;55.688;37.600;2023-09-12T14:40:31;15.43;;;7.35;;
70199;SDS011;57587;55.688;37.600;2023-09-12T14:42:58;12.68;;;8.25;;
70199;SDS011;57587;55.688;37.600;2023-09-12T14:45:25;15.15;;;7.57;;
70199;SDS011;57587;55.688;37.600;2023-09-12T14:47:52;14.17;;;7.90;;
70199;SDS011;57587;55.688;37.600;2023-09-12T14:50:22;12.80;;;7.68;;
70199;SDS011;57587;55.688;37.600;2023-09-12T14:53:07;13.45;;;7.57;;
70199;SDS011;57587;55.688;37.600;2023-09-12T14:55:34;11.35;;;6.82;;
70199;SDS011;57587;55.688;37.600;2023-09-12T14:58:01;14.80;;;7.15;;
70199;SDS011;57587;55.688;37.600;2023-09-12T15:00:28;12.87;;;6.63;;
70199;SDS011;57587;55.688;37.600;2023-09-12T15:02:57;13.98;;;6.70;;
70199;SDS011;57587;55.688;37.600;2023-09-12T15:05:24;22.25;;;6.75;;
70199;SDS011;57587;55.688;37.600;2023-09-12T15:07:53;14.27;;;6.57;;
70199;SDS011;57587;55.688;37.600;2023-09-12T15:10:20;18.00;;;7.13;;
70199;SDS011;57587;55.688;37.600;2023-09-12T15:12:48;18.17;;;6.40;;
70199;SDS011;57587;55.688;37.600;2023-09-12T15:15:15;14.82;;;6.85;;
70199;SDS011;57587;55.688;37.600;2023-09-12T15:17:42;12.57;;;6.18;;
70199;SDS011;57587;55.688;37.600;2023-09-12T15:20:09;13.73;;;6.13;;
70199;SDS011;57587;55.688;37.600;2023-09-12T15:22:37;11.10;;;5.97;;
70199;SDS011;57587;55.688;37.600;2023-09-12T15:25:04;17.93;;;6.50;;
70199;SDS011;57587;55.688;37.600;2023-09-12T15:27:40;11.65;;;6.70;;
70199;SDS011;57587;55.688;37.600;2023-09-12T15:30:07;12.93;;;6.35;;
70199;SDS011;57587;55.688;37.600;2023-09-12T15:32:34;9.85;;;5.93;;
70199;SDS011;57587;55.688;37.600;2023-09-12T15:35:01;12.95;;;6.00;;
70199;SDS011;57587;55.688;37.600;2023-09-12T15:37:29;11.37;;;6.63;;
70199;SDS011;57587;55.688;37.600;2023-09-12T15:39:57;12.45;;;6.45;;
70199;SDS011;57587;55.688;37.600;2023-09-12T15:42:24;11.73;;;7.50;;
70199;SDS011;57587;55.688;37.600;2023-09-12T15:45:02;17.40;;;6.20;;
70199;SDS011;57587;55.688;37.600;2023-09-12T15:47:31;12.55;;;6.65;;
70199;SDS011;57587;55.688;37.600;2023-09-12T15:50:02;11.90;;;6.57;;
70199;SDS011;57587;55.688;37.600;2023-09-12T15:52:30;13.00;;;7.13;;
70199;SDS011;57587;55.688;37.600;2023-09-12T15:54:57;10.98;;;7.32;;
70199;SDS011;57587;55.688;37.600;2023-09-12T15:57:24;11.57;;;6.97;;
70199;SDS011;57587;55.688;37.600;2023-09-12T15:59:51;13.82;;;7.00;;
70199;SDS011;57587;55.688;37.600;2023-09-12T16:02:18;10.50;;;6.70;;
70199;SDS011;57587;55.688;37.600;2023-09-12T16:04:45;13.38;;;7.10;;
70199;SDS011;57587;55.688;37.600;2023-09-12T16:07:12;11.02;;;6.75;;
70199;SDS011;57587;55.688;37.600;2023-09-12T16:09:39;13.48;;;7.28;;
70199;SDS011;57587;55.688;37.600;2023-09-12T16:12:06;14.13;;;7.85;;
70199;SDS011;57587;55.688;37.600;2023-09-12T16:14:33;14.53;;;7.30;;
70199;SDS011;57587;55.688;37.600;2023-09-12T16:17:01;17.65;;;7.45;;
70199;SDS011;57587;55.688;37.600;2023-09-12T16:19:28;12.82;;;7.32;;
70199;SDS011;57587;55.688;37.600;2023-09-12T16:21:56;10.95;;;6.97;;
70199;SDS011;57587;55.688;37.600;2023-09-12T16:24:24;14.43;;;7.28;;
70199;SDS011;57587;55.688;37.600;2023-09-12T16:26:51;13.23;;;6.63;;
70199;SDS011;57587;55.688;37.600;2023-09-12T16:29:19;11.38;;;7.40;;
70199;SDS011;57587;55.688;37.600;2023-09-12T16:31:46;17.98;;;7.80;;
70199;SDS011;57587;55.688;37.600;2023-09-12T16:34:14;11.27;;;7.05;;
70199;SDS011;57587;55.688;37.600;2023-09-12T16:36:41;13.60;;;7.72;;
70199;SDS011;57587;55.688;37.600;2023-09-12T16:39:08;13.50;;;7.50;;
70199;SDS011;57587;55.688;37.600;2023-09-12T16:41:36;14.75;;;7.72;;
70199;SDS011;57587;55.688;37.600;2023-09-12T16:44:03;15.13;;;7.85;;
70199;SDS011;57587;55.688;37.600;2023-09-12T16:46:30;15.93;;;7.63;;
70199;SDS011;57587;55.688;37.600;2023-09-12T16:48:57;15.27;;;8.50;;
70199;SDS011;57587;55.688;37.600;2023-09-12T16:51:24;21.00;;;8.80;;
70199;SDS011;57587;55.688;37.600;2023-09-12T16:53:51;17.50;;;9.18;;
70199;SDS011;57587;55.688;37.600;2023-09-12T16:56:18;19.83;;;9.52;;
70199;SDS011;57587;55.688;37.600;2023-09-12T16:58:45;16.55;;;10.35;;
70199;SDS011;57587;55.688;37.600;2023-09-12T17:01:12;22.38;;;10.55;;
70199;SDS011;57587;55.688;37.600;2023-09-12T17:03:43;26.47;;;10.23;;
70199;SDS011;57587;55.688;37.600;2023-09-12T17:06:12;20.10;;;9.43;;
70199;SDS011;57587;55.688;37.600;2023-09-12T17:08:39;15.10;;;8.30;;
70199;SDS011;57587;55.688;37.600;2023-09-12T17:11:06;17.30;;;8.38;;
70199;SDS011;57587;55.688;37.600;2023-09-12T17:13:33;20.88;;;8.40;;
70199;SDS011;57587;55.688;37.600;2023-09-12T17:16:00;22.07;;;8.80;;
70199;SDS011;57587;55.688;37.600;2023-09-12T17:18:27;16.88;;;8.23;;
70199;SDS011;57587;55.688;37.600;2023-09-12T17:20:54;17.85;;;9.45;;
70199;SDS011;57587;55.688;37.600;2023-09-12T17:23:21;20.90;;;10.88;;
70199;SDS011;57587;55.688;37.600;2023-09-12T17:25:48;23.67;;;11.35;;
70199;SDS011;57587;55.688;37.600;2023-09-12T17:28:15;24.20;;;10.60;;
70199;SDS011;57587;55.688;37.600;2023-09-12T17:30:42;23.50;;;10.45;;
70199;SDS011;57587;55.688;37.600;2023-09-12T17:33:09;21.13;;;10.15;;
70199;SDS011;57587;55.688;37.600;2023-09-12T17:35:38;23.60;;;11.45;;
70199;SDS011;57587;55.688;37.600;2023-09-12T17:38:05;23.42;;;9.80;;
70199;SDS011;57587;55.688;37.600;2023-09-12T17:40:32;25.60;;;10.43;;
70199;SDS011;57587;55.688;37.600;2023-09-12T17:43:00;22.88;;;9.63;;
70199;SDS011;57587;55.688;37.600;2023-09-12T17:45:28;20.80;;;9.52;;
70199;SDS011;57587;55.688;37.600;2023-09-12T17:47:55;26.33;;;11.02;;
70199;SDS011;57587;55.688;37.600;2023-09-12T17:50:23;24.58;;;11.20;;
70199;SDS011;57587;55.688;37.600;2023-09-12T17:52:50;17.47;;;9.73;;
70199;SDS011;57587;55.688;37.600;2023-09-12T17:55:17;25.35;;;9.68;;
70199;SDS011;57587;55.688;37.600;2023-09-12T17:57:46;24.10;;;9.95;;
70199;SDS011;57587;55.688;37.600;2023-09-12T18:00:14;22.50;;;9.02;;
70199;SDS011;57587;55.688;37.600;2023-09-12T18:02:41;16.80;;;9.00;;
70199;SDS011;57587;55.688;37.600;2023-09-12T18:05:09;17.93;;;8.37;;
70199;SDS011;57587;55.688;37.600;2023-09-12T18:07:37;20.63;;;9.52;;
70199;SDS011;57587;55.688;37.600;2023-09-12T18:10:04;21.08;;;9.48;;
70199;SDS011;57587;55.688;37.600;2023-09-12T18:12:33;16.60;;;8.73;;
70199;SDS011;57587;55.688;37.600;2023-09-12T18:15:00;17.38;;;9.30;;
70199;SDS011;57587;55.688;37.600;2023-09-12T18:17:29;20.47;;;9.27;;
70199;SDS011;57587;55.688;37.600;2023-09-12T18:19:56;21.98;;;10.07;;
70199;SDS011;57587;55.688;37.600;2023-09-12T18:22:23;20.23;;;10.35;;
70199;SDS011;57587;55.688;37.600;2023-09-12T18:24:50;23.67;;;10.43;;
70199;SDS011;57587;55.688;37.600;2023-09-12T18:27:17;20.08;;;10.70;;
70199;SDS011;57587;55.688;37.600;2023-09-12T18:29:44;20.23;;;9.60;;
70199;SDS011;57587;55.688;37.600;2023-09-12T18:32:11;22.63;;;10.38;;
70199;SDS011;57587;55.688;37.600;2023-09-12T18:34:38;28.27;;;10.82;;
70199;SDS011;57587;55.688;37.600;2023-09-12T18:37:05;20.02;;;11.65;;
70199;SDS011;57587;55.688;37.600;2023-09-12T18:39:33;22.67;;;12.23;;
70199;SDS011;57587;55.688;37.600;2023-09-12T18:42:00;23.17;;;12.03;;
70199;SDS011;57587;55.688;37.600;2023-09-12T18:44:27;28.10;;;12.52;;
70199;SDS011;57587;55.688;37.600;2023-09-12T18:46:55;24.63;;;12.15;;
70199;SDS011;57587;55.688;37.600;2023-09-12T18:49:22;36.97;;;17.67;;
70199;SDS011;57587;55.688;37.600;2023-09-12T18:51:49;23.38;;;12.32;;
70199;SDS011;57587;55.688;37.600;2023-09-12T18:54:20;19.90;;;11.60;;
70199;SDS011;57587;55.688;37.600;2023-09-12T18:56:48;19.73;;;10.10;;
70199;SDS011;57587;55.688;37.600;2023-09-12T18:59:17;20.70;;;10.75;;
70199;SDS011;57587;55.688;37.600;2023-09-12T19:01:44;19.95;;;9.63;;
70199;SDS011;57587;55.688;37.600;2023-09-12T19:04:21;21.80;;;10.50;;
70199;SDS011;57587;55.688;37.600;2023-09-12T19:06:50;20.33;;;11.03;;
70199;SDS011;57587;55.688;37.600;2023-09-12T19:09:18;18.48;;;10.98;;
70199;SDS011;57587;55.688;37.600;2023-09-12T19:11:46;20.48;;;10.68;;
70199;SDS011;57587;55.688;37.600;2023-09-12T19:14:14;23.30;;;11.13;;
70199;SDS011;57587;55.688;37.600;2023-09-12T19:16:42;19.83;;;11.40;;
70199;SDS011;57587;55.688;37.600;2023-09-12T19:19:10;24.67;;;11.57;;
70199;SDS011;57587;55.688;37.600;2023-09-12T19:21:38;26.83;;;13.95;;
70199;SDS011;57587;55.688;37.600;2023-09-12T19:24:05;22.42;;;11.52;;
70199;SDS011;57587;55.688;37.600;2023-09-12T19:26:33;17.63;;;10.52;;
70199;SDS011;57587;55.688;37.600;2023-09-12T19:29:01;26.73;;;10.70;;
70199;SDS011;57587;55.688;37.600;2023-09-12T19:31:29;20.97;;;9.67;;
70199;SDS011;57587;55.688;37.600;2023-09-12T19:33:57;20.88;;;9.43;;
70199;SDS011;57587;55.688;37.600;2023-09-12T19:36:24;18.40;;;9.73;;
70199;SDS011;57587;55.688;37.600;2023-09-12T19:39:09;22.85;;;9.65;;
70199;SDS011;57587;55.688;37.600;2023-09-12T19:41:36;23.85;;;10.75;;
70199;SDS011;57587;55.688;37.600;2023-09-12T19:44:04;23.47;;;10.13;;
70199;SDS011;57587;55.688;37.600;2023-09-12T19:46:31;26.60;;;9.82;;
70199;SDS011;57587;55.688;37.600;2023-09-12T19:48:58;24.10;;;10.15;;
70199;SDS011;57587;55.688;37.600;2023-09-12T19:51:25;19.75;;;10.20;;
70199;SDS011;57587;55.688;37.600;2023-09-12T19:53:53;24.90;;;10.35;;
70199;SDS011;57587;55.688;37.600;2023-09-12T19:56:19;22.47;;;10.00;;
70199;SDS011;57587;55.688;37.600;2023-09-12T19:58:47;17.75;;;9.65;;
70199;SDS011;57587;55.688;37.600;2023-09-12T20:01:14;23.38;;;10.43;;
70199;SDS011;57587;55.688;37.600;2023-09-12T20:03:41;22.60;;;10.45;;
70199;SDS011;57587;55.688;37.600;2023-09-12T20:06:09;22.90;;;10.50;;
70199;SDS011;57587;55.688;37.600;2023-09-12T20:08:36;21.83;;;9.10;;
70199;SDS011;57587;55.688;37.600;2023-09-12T20:11:06;20.65;;;9.95;;
70199;SDS011;57587;55.688;37.600;2023-09-12T20:13:33;19.08;;;9.98;;
70199;SDS011;57587;55.688;37.600;2023-09-12T20:16:01;23.02;;;9.43;;
70199;SDS011;57587;55.688;37.600;2023-09-12T20:18:31;17.95;;;9.88;;
70199;SDS011;57587;55.688;37.600;2023-09-12T20:20:58;19.23;;;9.70;;
70199;SDS011;57587;55.688;37.600;2023-09-12T20:23:25;16.63;;;9.18;;
70199;SDS011;57587;55.688;37.600;2023-09-12T20:25:52;17.33;;;8.93;;
70199;SDS011;57587;55.688;37.600;2023-09-12T20:28:22;23.75;;;9.75;;
70199;SDS011;57587;55.688;37.600;2023-09-12T20:30:50;19.42;;;9.55;;
70199;SDS011;57587;55.688;37.600;2023-09-12T20:33:17;18.53;;;8.73;;
70199;SDS011;57587;55.688;37.600;2023-09-12T20:35:44;15.45;;;9.45;;
70199;SDS011;57587;55.688;37.600;2023-09-12T20:38:11;19.20;;;9.57;;
70199;SDS011;57587;55.688;37.600;2023-09-12T20:40:38;18.50;;;10.32;;
70199;SDS011;57587;55.688;37.600;2023-09-12T20:43:05;20.85;;;9.32;;
70199;SDS011;57587;55.688;37.600;2023-09-12T20:45:33;16.30;;;9.27;;
70199;SDS011;57587;55.688;37.600;2023-09-12T20:48:00;22.20;;;9.68;;
70199;SDS011;57587;55.688;37.600;2023-09-12T20:50:28;16.25;;;9.98;;
70199;SDS011;57587;55.688;37.600;2023-09-12T20:53:00;22.63;;;9.63;;
70199;SDS011;57587;55.688;37.600;2023-09-12T20:55:36;20.02;;;8.82;;
70199;SDS011;57587;55.688;37.600;2023-09-12T20:58:04;14.07;;;8.53;;
70199;SDS011;57587;55.688;37.600;2023-09-12T21:00:31;16.75;;;9.32;;
70199;SDS011;57587;55.688;37.600;2023-09-12T21:02:58;17.40;;;9.70;;
70199;SDS011;57587;55.688;37.600;2023-09-12T21:05:26;24.38;;;10.23;;
70199;SDS011;57587;55.688;37.600;2023-09-12T21:07:53;19.27;;;9.65;;
70199;SDS011;57587;55.688;37.600;2023-09-12T21:10:23;17.57;;;9.73;;
70199;SDS011;57587;55.688;37.600;2023-09-12T21:12:50;17.30;;;9.93;;
70199;SDS011;57587;55.688;37.600;2023-09-12T21:15:17;20.67;;;10.32;;
70199;SDS011;57587;55.688;37.600;2023-09-12T21:17:49;17.65;;;10.45;;
70199;SDS011;57587;55.688;37.600;2023-09-12T21:20:16;19.73;;;10.02;;
70199;SDS011;57587;55.688;37.600;2023-09-12T21:22:43;20.07;;;9.60;;
70199;SDS011;57587;55.688;37.600;2023-09-12T21:25:10;21.40;;;9.50;;
70199;SDS011;57587;55.688;37.600;2023-09-12T21:27:37;18.92;;;10.35;;
70199;SDS011;57587;55.688;37.600;2023-09-12T21:30:04;16.88;;;9.45;;
70199;SDS011;57587;55.688;37.600;2023-09-12T21:32:32;19.80;;;9.73;;
70199;SDS011;57587;55.688;37.600;2023-09-12T21:35:12;20.67;;;10.37;;
70199;SDS011;57587;55.688;37.600;2023-09-12T21:37:43;16.15;;;10.30;;
70199;SDS011;57587;55.688;37.600;2023-09-12T21:40:11;16.60;;;9.55;;
70199;SDS011;57587;55.688;37.600;2023-09-12T21:42:39;19.65;;;9.85;;
70199;SDS011;57587;55.688;37.600;2023-09-12T21:45:07;14.98;;;9.80;;
70199;SDS011;57587;55.688;37.600;2023-09-12T21:47:44;19.37;;;9.67;;
70199;SDS011;57587;55.688;37.600;2023-09-12T21:50:11;18.55;;;9.82;;
70199;SDS011;57587;55.688;37.600;2023-09-12T21:52:40;16.85;;;9.85;;
70199;SDS011;57587;55.688;37.600;2023-09-12T21:55:07;17.83;;;9.95;;
70199;SDS011;57587;55.688;37.600;2023-09-12T21:57:34;19.50;;;10.60;;
70199;SDS011;57587;55.688;37.600;2023-09-12T22:00:02;24.03;;;9.37;;
70199;SDS011;57587;55.688;37.600;2023-09-12T22:02:52;22.20;;;10.82;;
70199;SDS011;57587;55.688;37.600;2023-09-12T22:05:21;19.42;;;10.65;;
70199;SDS011;57587;55.688;37.600;2023-09-12T22:07:49;16.13;;;10.55;;
70199;SDS011;57587;55.688;37.600;2023-09-12T22:10:17;22.77;;;10.45;;
70199;SDS011;57587;55.688;37.600;2023-09-12T22:12:44;21.30;;;9.77;;
70199;SDS011;57587;55.688;37.600;2023-09-12T22:15:12;23.52;;;11.07;;
70199;SDS011;57587;55.688;37.600;2023-09-12T22:17:39;26.35;;;10.70;;
70199;SDS011;57587;55.688;37.600;2023-09-12T22:20:06;15.50;;;9.30;;
70199;SDS011;57587;55.688;37.600;2023-09-12T22:22:39;28.27;;;11.23;;
70199;SDS011;57587;55.688;37.600;2023-09-12T22:25:06;17.80;;;9.90;;
70199;SDS011;57587;55.688;37.600;2023-09-12T22:27:36;19.98;;;10.18;;
70199;SDS011;57587;55.688;37.600;2023-09-12T22:30:07;18.52;;;10.00;;
70199;SDS011;57587;55.688;37.600;2023-09-12T22:32:36;17.90;;;10.00;;
70199;SDS011;57587;55.688;37.600;2023-09-12T22:35:04;17.60;;;10.07;;
70199;SDS011;57587;55.688;37.600;2023-09-12T22:37:31;21.67;;;10.10;;
70199;SDS011;57587;55.688;37.600;2023-09-12T22:39:58;16.70;;;10.00;;
70199;SDS011;57587;55.688;37.600;2023-09-12T22:42:25;20.55;;;10.00;;
70199;SDS011;57587;55.688;37.600;2023-09-12T22:44:52;17.27;;;9.57;;
70199;SDS011;57587;55.688;37.600;2023-09-12T22:47:19;18.55;;;9.85;;
70199;SDS011;57587;55.688;37.600;2023-09-12T22:49:46;19.20;;;9.83;;
70199;SDS011;57587;55.688;37.600;2023-09-12T22:52:13;17.92;;;9.98;;
70199;SDS011;57587;55.688;37.600;2023-09-12T22:54:40;21.52;;;9.80;;
70199;SDS011;57587;55.688;37.600;2023-09-12T22:57:07;21.02;;;10.10;;
70199;SDS011;57587;55.688;37.600;2023-09-12T22:59:34;16.85;;;9.80;;
70199;SDS011;57587;55.688;37.600;2023-09-12T23:02:01;18.83;;;10.03;;
70199;SDS011;57587;55.688;37.600;2023-09-12T23:04:28;19.52;;;9.85;;
70199;SDS011;57587;55.688;37.600;2023-09-12T23:06:55;17.23;;;9.88;;
70199;SDS011;57587;55.688;37.600;2023-09-12T23:09:23;20.23;;;10.02;;
70199;SDS011;57587;55.688;37.600;2023-09-12T23:11:50;17.25;;;10.30;;
70199;SDS011;57587;55.688;37.600;2023-09-12T23:14:17;21.97;;;10.00;;
70199;SDS011;57587;55.688;37.600;2023-09-12T23:16:44;17.92;;;10.32;;
70199;SDS011;57587;55.688;37.600;2023-09-12T23:19:11;20.45;;;10.27;;
70199;SDS011;57587;55.688;37.600;2023-09-12T23:21:38;18.75;;;9.85;;
70199;SDS011;57587;55.688;37.600;2023-09-12T23:24:05;23.67;;;9.98;;
70199;SDS011;57587;55.688;37.600;2023-09-12T23:26:32;15.70;;;10.33;;
70199;SDS011;57587;55.688;37.600;2023-09-12T23:28:59;22.92;;;9.95;;
70199;SDS011;57587;55.688;37.600;2023-09-12T23:31:26;18.83;;;10.05;;
70199;SDS011;57587;55.688;37.600;2023-09-12T23:33:54;21.80;;;9.40;;
70199;SDS011;57587;55.688;37.600;2023-09-12T23:36:21;22.45;;;10.63;;
70199;SDS011;57587;55.688;37.600;2023-09-12T23:38:48;17.63;;;10.33;;
70199;SDS011;57587;55.688;37.600;2023-09-12T23:41:15;21.25;;;10.43;;
70199;SDS011;57587;55.688;37.600;2023-09-12T23:43:42;21.40;;;10.57;;
70199;SDS011;57587;55.688;37.600;2023-09-12T23:46:09;20.08;;;10.45;;
70199;SDS011;57587;55.688;37.600;2023-09-12T23:48:37;17.38;;;10.50;;
70199;SDS011;57587;55.688;37.600;2023-09-12T23:51:21;21.47;;;10.50;;
70199;SDS011;57587;55.688;37.600;2023-09-12T23:53:48;23.13;;;10.13;;
70199;SDS011;57587;55.688;37.600;2023-09-12T23:56:15;25.30;;;11.40;;
70199;SDS011;57587;55.688;37.600;2023-09-12T23:58:42;23.85;;;12.02;;
